Time;durP1;ratioP1;P1;durP2;ratioP2;P2;SDS_P1;SDS_P2;PMS_P1;PMS_P2;Temp;Humidity;BMP_temperature;BMP_pressure;BME280_temperature;BME280_humidity;BME280_pressure;Samples;Min_cycle;Max_cycle;Signal;HPM_P1;HPM_P2
2023/01/01 00:01:39;;;;;;;126.88;56.05;;;12.40;99.90;;;;;;5032474;28;20135;-83
2023/01/01 00:04:11;;;;;;;132.38;54.70;;;12.40;99.90;;;;;;5032447;28;20386;-83
2023/01/01 00:06:37;;;;;;;123.35;50.60;;;12.30;99.90;;;;;;5032589;28;20049;-83
2023/01/01 00:11:47;;;;;;;113.35;49.88;;;12.20;99.90;;;;;;5032453;28;20111;-82
2023/01/01 00:14:12;;;;;;;123.32;48.00;;;12.10;99.90;;;;;;5032087;28;20053;-83
2023/01/01 00:16:38;;;;;;;104.80;42.38;;;12.10;99.90;;;;;;5032338;28;20088;-83
2023/01/01 00:19:04;;;;;;;110.72;45.15;;;12.10;99.90;;;;;;5032305;28;20117;-82
2023/01/01 00:21:29;;;;;;;116.53;43.65;;;12.00;99.90;;;;;;5033806;28;20124;-83
2023/01/01 00:23:55;;;;;;;102.93;43.08;;;12.00;99.90;;;;;;5032510;28;20045;-83
2023/01/01 00:26:21;;;;;;;104.05;42.15;;;11.90;99.90;;;;;;5032057;28;20049;-83
2023/01/01 00:28:46;;;;;;;98.05;42.38;;;11.90;99.90;;;;;;5032154;28;20053;-83
2023/01/01 00:31:18;;;;;;;99.47;41.13;;;11.90;99.90;;;;;;5032174;28;20045;-83
2023/01/01 00:33:48;;;;;;;107.50;39.40;;;11.90;99.90;;;;;;5032276;28;20053;-83
2023/01/01 00:36:15;;;;;;;91.65;37.13;;;11.90;99.90;;;;;;5031999;28;20052;-83
2023/01/01 00:38:42;;;;;;;105.38;37.42;;;11.90;99.90;;;;;;5033560;28;20052;-84
2023/01/01 00:41:08;;;;;;;92.63;37.50;;;11.90;99.90;;;;;;5032169;28;20123;-84
2023/01/01 00:43:34;;;;;;;104.72;37.97;;;11.90;99.90;;;;;;5032111;28;20077;-84
2023/01/01 00:46:00;;;;;;;101.80;41.42;;;11.90;99.90;;;;;;5032002;28;20128;-84
2023/01/01 00:48:26;;;;;;;113.65;42.10;;;11.90;99.90;;;;;;5032326;28;20485;-84
2023/01/01 00:50:52;;;;;;;105.57;38.42;;;12.00;99.90;;;;;;5032341;28;20053;-83
2023/01/01 00:53:19;;;;;;;107.60;43.38;;;12.00;99.90;;;;;;5032129;28;20141;-84
2023/01/01 00:55:47;;;;;;;106.75;43.30;;;12.00;99.90;;;;;;5033224;28;20489;-83
2023/01/01 00:58:13;;;;;;;118.50;46.92;;;12.00;99.90;;;;;;5031924;28;20483;-83
2023/01/01 01:00:38;;;;;;;122.20;46.88;;;12.00;99.90;;;;;;5033355;28;20087;-83
2023/01/01 01:03:04;;;;;;;135.48;48.10;;;12.00;99.90;;;;;;5035893;28;20037;-83
2023/01/01 01:05:31;;;;;;;122.53;49.00;;;12.00;99.90;;;;;;5035969;28;20045;-85
2023/01/01 01:07:57;;;;;;;125.90;50.90;;;12.00;99.90;;;;;;5035929;28;20045;-85
2023/01/01 01:10:24;;;;;;;135.02;50.70;;;12.10;99.90;;;;;;5036119;28;20045;-85
2023/01/01 01:12:51;;;;;;;110.85;44.83;;;12.10;99.90;;;;;;5035914;28;20088;-85
2023/01/01 01:15:18;;;;;;;104.13;35.95;;;12.20;99.90;;;;;;5035679;28;20528;-84
2023/01/01 01:17:43;;;;;;;76.53;29.25;;;12.20;99.90;;;;;;5037067;28;20033;-85
2023/01/01 01:20:10;;;;;;;73.05;23.33;;;12.20;99.90;;;;;;5036987;28;20520;-84
2023/01/01 01:22:36;;;;;;;71.65;24.23;;;12.40;99.90;;;;;;5035863;28;20049;-84
2023/01/01 01:25:01;;;;;;;68.68;22.38;;;12.40;99.90;;;;;;5035453;28;20060;-84
2023/01/01 01:27:27;;;;;;;69.32;24.13;;;12.30;99.90;;;;;;5035415;28;20081;-84
2023/01/01 01:29:54;;;;;;;63.90;20.90;;;12.40;99.90;;;;;;5036423;28;20140;-85
2023/01/01 01:32:20;;;;;;;53.67;17.27;;;12.40;99.90;;;;;;5035718;28;20044;-84
2023/01/01 01:34:46;;;;;;;57.03;14.15;;;12.30;99.90;;;;;;5035439;28;20128;-84
2023/01/01 01:37:12;;;;;;;57.83;16.92;;;12.30;99.90;;;;;;5035713;28;20084;-85
2023/01/01 01:39:38;;;;;;;54.20;16.98;;;12.20;99.90;;;;;;5035183;28;20085;-84
2023/01/01 01:42:05;;;;;;;58.42;15.73;;;12.20;99.90;;;;;;5035348;28;20179;-85
2023/01/01 01:44:48;;;;;;;59.53;17.83;;;12.10;99.90;;;;;;5035141;28;20052;-87
2023/01/01 01:47:28;;;;;;;55.05;18.88;;;12.00;99.90;;;;;;5035484;28;20049;-88
2023/01/01 01:50:02;;;;;;;56.42;15.20;;;12.00;99.90;;;;;;5035310;28;20086;-88
2023/01/01 01:52:31;;;;;;;52.45;13.88;;;12.00;99.90;;;;;;5035459;28;20053;-88
2023/01/01 01:55:00;;;;;;;44.85;11.05;;;11.80;99.90;;;;;;5035137;28;20048;-89
2023/01/01 01:57:27;;;;;;;48.72;11.55;;;11.80;99.90;;;;;;5036455;28;20045;-89
2023/01/01 01:59:55;;;;;;;45.67;10.15;;;11.90;99.90;;;;;;5035124;28;20033;-88
2023/01/01 02:02:37;;;;;;;58.60;11.55;;;11.70;99.90;;;;;;5035316;28;20037;-88
2023/01/01 02:05:04;;;;;;;43.80;11.32;;;11.80;99.90;;;;;;5034956;28;20068;-89
2023/01/01 02:07:31;;;;;;;45.03;14.45;;;11.80;99.90;;;;;;5034887;28;20126;-89
2023/01/01 02:09:57;;;;;;;56.47;14.73;;;11.70;99.90;;;;;;5034868;28;20052;-87
2023/01/01 02:12:24;;;;;;;51.10;11.02;;;11.50;99.90;;;;;;5034473;28;20124;-87
2023/01/01 02:14:50;;;;;;;53.33;11.52;;;11.70;99.90;;;;;;5034229;28;20485;-88
2023/01/01 02:17:23;;;;;;;53.80;11.82;;;11.60;99.90;;;;;;5035970;28;20052;-87
2023/01/01 02:20:25;;;;;;;45.55;9.43;;;11.60;99.90;;;;;;5034837;28;20053;-87
2023/01/01 02:23:14;;;;;;;44.17;10.70;;;11.50;99.90;;;;;;5034850;28;20488;-87
2023/01/01 02:26:01;;;;;;;49.42;10.10;;;11.40;99.90;;;;;;5034270;28;20049;-87
2023/01/01 02:28:57;;;;;;;43.78;10.38;;;11.50;99.90;;;;;;5034705;28;20113;-87
2023/01/01 02:31:32;;;;;;;53.47;11.18;;;11.40;99.90;;;;;;5034459;28;20096;-86
2023/01/01 02:34:01;;;;;;;40.33;11.35;;;11.40;99.90;;;;;;5034230;28;20067;-86
2023/01/01 02:36:31;;;;;;;37.95;11.32;;;11.40;99.90;;;;;;5034246;28;20049;-86
2023/01/01 02:39:00;;;;;;;36.17;10.45;;;11.50;99.90;;;;;;5034502;28;20045;-86
2023/01/01 02:41:30;;;;;;;41.05;11.35;;;11.60;99.90;;;;;;5034574;28;20045;-86
2023/01/01 02:43:55;;;;;;;42.47;11.52;;;11.50;99.90;;;;;;5033821;28;20045;-86
2023/01/01 02:46:21;;;;;;;51.45;10.02;;;11.40;99.90;;;;;;5034251;28;20051;-85
2023/01/01 02:48:52;;;;;;;46.15;10.93;;;11.50;99.90;;;;;;5016520;28;20049;-86
2023/01/01 02:51:23;;;;;;;43.47;11.25;;;11.40;99.90;;;;;;5014464;28;20245;-85
2023/01/01 02:53:58;;;;;;;38.70;9.55;;;11.30;99.90;;;;;;5014465;28;20050;-85
2023/01/01 02:56:35;;;;;;;45.63;10.18;;;11.50;99.90;;;;;;5014423;28;20049;-85
2023/01/01 03:02:02;;;;;;;35.50;10.30;;;11.50;99.90;;;;;;5014613;28;20050;-85
2023/01/01 03:04:33;;;;;;;39.25;12.52;;;11.40;99.90;;;;;;5013991;28;20050;-85
2023/01/01 03:07:42;;;;;;;40.08;8.80;;;11.40;99.90;;;;;;5014284;28;20085;-85
2023/01/01 03:10:17;;;;;;;43.85;9.05;;;11.30;99.90;;;;;;5013770;28;20088;-85
2023/01/01 03:13:15;;;;;;;36.55;8.63;;;11.40;99.90;;;;;;5014048;28;20508;-85
2023/01/01 03:15:58;;;;;;;38.42;9.45;;;11.30;99.90;;;;;;5013692;28;20042;-85
2023/01/01 03:18:46;;;;;;;37.25;8.48;;;11.40;99.90;;;;;;5013778;28;20176;-84
2023/01/01 03:21:16;;;;;;;40.08;8.88;;;11.40;99.90;;;;;;5013782;28;20061;-85
2023/01/01 03:23:48;;;;;;;51.90;12.48;;;11.30;99.90;;;;;;5013737;28;20084;-85
2023/01/01 03:26:16;;;;;;;36.58;9.70;;;11.40;99.90;;;;;;5013043;28;20046;-85
2023/01/01 03:29:03;;;;;;;42.78;10.88;;;11.20;99.90;;;;;;5013786;28;20050;-85
2023/01/01 03:31:30;;;;;;;41.92;9.82;;;11.20;99.90;;;;;;5013698;28;20048;-85
2023/01/01 03:34:20;;;;;;;40.80;8.98;;;11.30;99.90;;;;;;5013765;28;20045;-85
2023/01/01 03:36:51;;;;;;;29.45;8.25;;;11.30;99.90;;;;;;5014789;28;20038;-85
2023/01/01 03:39:35;;;;;;;32.80;7.45;;;11.30;99.90;;;;;;5013666;28;20057;-85
2023/01/01 03:42:34;;;;;;;26.73;6.78;;;11.40;99.90;;;;;;5013719;28;20060;-85
2023/01/01 03:45:15;;;;;;;31.95;7.22;;;11.30;99.90;;;;;;5013282;28;20038;-84
2023/01/01 03:47:41;;;;;;;31.00;8.30;;;11.20;99.90;;;;;;5013461;28;20046;-85
2023/01/01 03:50:07;;;;;;;29.27;7.82;;;11.20;99.90;;;;;;5013171;28;20041;-85
2023/01/01 03:52:51;;;;;;;29.92;7.28;;;11.20;99.90;;;;;;5013410;28;20042;-84
2023/01/01 03:55:33;;;;;;;26.30;7.22;;;11.20;99.90;;;;;;5013021;28;20053;-85
2023/01/01 03:58:30;;;;;;;31.02;7.68;;;11.30;99.90;;;;;;5013189;28;20125;-85
2023/01/01 04:01:25;;;;;;;29.85;7.30;;;11.20;99.90;;;;;;5013351;28;20064;-85
2023/01/01 04:03:51;;;;;;;50.97;9.82;;;11.20;99.90;;;;;;5013044;28;20064;-84
2023/01/01 04:06:17;;;;;;;35.13;10.63;;;11.20;99.90;;;;;;5014310;28;20048;-84
2023/01/01 04:08:45;;;;;;;38.83;10.32;;;11.10;99.90;;;;;;5013183;28;20041;-84
2023/01/01 04:14:04;;;;;;;45.75;8.82;;;11.20;99.90;;;;;;5012551;28;20068;-84
2023/01/01 04:16:29;;;;;;;31.65;7.70;;;11.10;99.90;;;;;;5012643;28;20058;-84
2023/01/01 04:18:55;;;;;;;30.10;8.35;;;11.10;99.90;;;;;;5012958;28;20041;-84
2023/01/01 04:21:21;;;;;;;41.63;8.95;;;11.00;99.90;;;;;;5013019;28;20478;-84
2023/01/01 04:23:46;;;;;;;27.10;8.95;;;11.00;99.90;;;;;;5013042;28;20076;-84
2023/01/01 04:26:15;;;;;;;39.90;9.55;;;11.10;99.90;;;;;;5012646;28;20383;-84
2023/01/01 04:28:41;;;;;;;41.08;9.13;;;11.00;99.90;;;;;;5012515;28;20042;-84
2023/01/01 04:31:08;;;;;;;48.30;10.88;;;10.90;99.90;;;;;;5012807;28;20049;-84
2023/01/01 04:33:34;;;;;;;48.58;11.63;;;10.90;99.90;;;;;;5012540;28;20050;-84
2023/01/01 04:36:05;;;;;;;48.83;10.23;;;10.90;99.90;;;;;;5012334;28;20038;-84
2023/01/01 04:38:35;;;;;;;46.30;9.60;;;11.00;99.90;;;;;;5013626;28;20038;-84
2023/01/01 04:41:02;;;;;;;39.88;7.85;;;10.90;99.90;;;;;;5013857;28;20108;-84
2023/01/01 04:43:30;;;;;;;37.55;9.80;;;10.90;99.90;;;;;;5012464;28;20057;-84
2023/01/01 04:46:03;;;;;;;35.67;9.13;;;10.80;99.90;;;;;;5012255;28;20050;-84
2023/01/01 04:48:30;;;;;;;32.55;7.70;;;10.80;99.90;;;;;;5012532;28;20041;-83
2023/01/01 04:51:01;;;;;;;33.35;8.45;;;10.90;99.90;;;;;;5012769;28;20125;-85
2023/01/01 04:53:34;;;;;;;37.22;7.72;;;10.90;99.90;;;;;;5012359;28;20129;-84
2023/01/01 04:56:07;;;;;;;29.40;6.47;;;10.90;99.90;;;;;;5012648;28;20038;-84
2023/01/01 04:58:34;;;;;;;23.88;5.50;;;11.00;99.90;;;;;;5012569;28;20049;-84
2023/01/01 05:01:00;;;;;;;26.10;5.18;;;10.90;99.90;;;;;;5012374;28;20038;-84
2023/01/01 05:03:26;;;;;;;25.98;5.78;;;11.00;99.90;;;;;;5012356;28;20046;-84
2023/01/01 05:06:06;;;;;;;27.40;5.15;;;11.00;99.90;;;;;;5012275;28;20134;-84
2023/01/01 05:08:33;;;;;;;34.67;6.05;;;11.10;99.90;;;;;;5012216;28;20046;-84
2023/01/01 05:11:00;;;;;;;32.47;8.68;;;11.00;99.90;;;;;;5012445;28;20045;-83
2023/01/01 05:13:26;;;;;;;59.13;9.07;;;11.00;99.90;;;;;;5011824;28;20057;-85
2023/01/01 05:15:52;;;;;;;51.42;8.88;;;11.00;99.90;;;;;;5012067;28;20058;-84
2023/01/01 05:18:17;;;;;;;39.47;9.32;;;10.90;99.90;;;;;;5012719;28;20092;-84
2023/01/01 05:20:43;;;;;;;47.17;8.90;;;10.90;99.90;;;;;;5012633;28;20087;-83
2023/01/01 05:23:09;;;;;;;52.90;8.82;;;11.00;99.90;;;;;;5013588;28;20508;-84
2023/01/01 05:25:34;;;;;;;48.38;8.57;;;10.90;99.90;;;;;;5012123;28;20049;-84
2023/01/01 05:28:00;;;;;;;47.15;9.48;;;11.00;99.90;;;;;;5012615;28;20038;-84
2023/01/01 05:30:26;;;;;;;40.80;8.43;;;11.00;99.90;;;;;;5012091;28;20405;-84
2023/01/01 05:32:52;;;;;;;50.10;9.00;;;10.90;99.90;;;;;;5013313;28;20046;-84
2023/01/01 05:35:17;;;;;;;40.67;8.07;;;10.90;99.90;;;;;;5012203;28;20053;-84
2023/01/01 05:37:43;;;;;;;35.30;8.52;;;10.90;99.90;;;;;;5013323;28;20485;-84
2023/01/01 05:40:09;;;;;;;55.88;8.60;;;11.00;99.90;;;;;;5011953;28;20096;-84
2023/01/01 05:42:35;;;;;;;50.05;9.00;;;11.00;99.90;;;;;;5013336;28;20477;-84
2023/01/01 05:45:01;;;;;;;45.65;9.32;;;10.90;99.90;;;;;;5011829;28;20053;-84
2023/01/01 05:47:27;;;;;;;34.67;6.60;;;10.90;99.90;;;;;;5012202;28;20042;-84
2023/01/01 05:49:53;;;;;;;57.67;8.18;;;10.90;99.90;;;;;;5015261;28;20060;-84
2023/01/01 05:52:18;;;;;;;47.80;7.15;;;11.00;99.90;;;;;;5015333;28;20050;-84
2023/01/01 05:54:44;;;;;;;46.10;6.55;;;10.90;99.90;;;;;;5015546;28;20049;-84
2023/01/01 05:57:10;;;;;;;36.90;6.47;;;10.90;99.90;;;;;;5015460;28;20433;-84
2023/01/01 05:59:35;;;;;;;35.13;7.07;;;10.80;99.90;;;;;;5015508;28;20462;-85
2023/01/01 06:02:01;;;;;;;36.72;7.38;;;10.80;99.90;;;;;;5015158;28;20486;-84
2023/01/01 06:04:27;;;;;;;38.05;7.22;;;10.80;99.90;;;;;;5014918;28;20042;-84
2023/01/01 06:06:52;;;;;;;41.88;6.68;;;10.70;99.90;;;;;;5015263;28;20054;-84
2023/01/01 06:09:18;;;;;;;38.63;7.15;;;10.70;99.90;;;;;;5015238;28;20053;-84
2023/01/01 06:11:43;;;;;;;41.92;7.05;;;10.70;99.90;;;;;;5014986;28;20045;-84
2023/01/01 06:14:09;;;;;;;37.05;7.40;;;10.70;99.90;;;;;;5015094;28;20140;-83
2023/01/01 06:16:34;;;;;;;30.25;6.97;;;10.70;99.90;;;;;;5014920;28;20125;-84
2023/01/01 06:19:00;;;;;;;41.58;5.88;;;10.60;99.90;;;;;;5014728;28;20041;-84
2023/01/01 06:21:27;;;;;;;41.22;5.60;;;10.70;99.90;;;;;;5014977;28;20042;-84
2023/01/01 06:23:56;;;;;;;30.08;7.05;;;10.50;99.90;;;;;;5016071;28;20125;-84
2023/01/01 06:26:25;;;;;;;24.90;4.63;;;10.60;99.90;;;;;;5014744;28;20049;-83
2023/01/01 06:28:51;;;;;;;36.95;5.85;;;10.50;99.90;;;;;;5014659;28;20125;-84
2023/01/01 06:31:19;;;;;;;40.63;7.00;;;10.60;99.90;;;;;;5014701;28;20056;-84
2023/01/01 06:33:45;;;;;;;37.15;4.78;;;10.50;99.90;;;;;;5015783;28;20046;-84
2023/01/01 06:36:13;;;;;;;24.65;4.13;;;10.50;99.90;;;;;;5014574;28;20486;-84
2023/01/01 06:38:42;;;;;;;34.45;4.72;;;10.60;99.90;;;;;;5014262;28;20046;-83
2023/01/01 06:41:11;;;;;;;34.55;5.07;;;10.50;99.90;;;;;;5014702;28;20046;-83
2023/01/01 06:43:37;;;;;;;38.05;5.78;;;10.60;99.90;;;;;;5014637;28;20502;-83
2023/01/01 06:46:05;;;;;;;38.38;5.30;;;10.50;99.90;;;;;;5014060;28;20481;-83
2023/01/01 06:48:34;;;;;;;29.23;5.05;;;10.50;99.90;;;;;;5014759;28;20124;-84
2023/01/01 06:51:12;;;;;;;27.17;3.92;;;10.40;99.90;;;;;;5014409;28;20038;-84
2023/01/01 06:53:37;;;;;;;38.50;6.50;;;10.50;99.90;;;;;;5014238;28;20046;-84
2023/01/01 06:56:04;;;;;;;30.25;3.90;;;10.50;99.90;;;;;;5013911;28;20060;-83
2023/01/01 06:58:30;;;;;;;34.45;4.80;;;10.50;99.90;;;;;;5013916;28;20088;-83
2023/01/01 07:01:03;;;;;;;42.50;5.57;;;10.50;99.90;;;;;;5014186;28;20116;-84
2023/01/01 07:03:28;;;;;;;34.17;4.97;;;10.40;99.90;;;;;;5013945;28;20478;-84
2023/01/01 07:05:54;;;;;;;38.75;5.05;;;10.40;99.90;;;;;;5013736;28;20545;-84
2023/01/01 07:08:19;;;;;;;26.48;5.65;;;10.30;99.90;;;;;;5014184;28;20042;-84
2023/01/01 07:10:45;;;;;;;31.60;5.15;;;10.30;99.90;;;;;;5013702;28;20085;-84
2023/01/01 07:13:11;;;;;;;37.20;6.05;;;10.30;99.90;;;;;;5013561;28;20050;-83
2023/01/01 07:15:36;;;;;;;41.10;5.68;;;10.30;99.90;;;;;;5013994;28;20038;-84
2023/01/01 07:18:02;;;;;;;37.08;4.80;;;10.30;99.90;;;;;;5013696;28;20441;-83
2023/01/01 07:20:28;;;;;;;32.63;4.88;;;10.30;99.90;;;;;;5013952;28;20134;-84
2023/01/01 07:22:53;;;;;;;38.17;6.85;;;10.20;99.90;;;;;;5013958;28;20386;-84
2023/01/01 07:25:19;;;;;;;44.42;5.60;;;10.40;99.90;;;;;;5014759;28;20068;-84
2023/01/01 07:27:45;;;;;;;37.83;5.80;;;10.20;99.90;;;;;;5014872;28;20050;-84
2023/01/01 07:30:10;;;;;;;40.17;5.28;;;10.20;99.90;;;;;;5014831;28;20099;-83
2023/01/01 07:32:36;;;;;;;31.40;4.18;;;10.20;99.90;;;;;;5013332;28;20050;-83
2023/01/01 07:35:01;;;;;;;37.63;4.63;;;10.20;99.90;;;;;;5013689;28;20054;-83
2023/01/01 07:37:27;;;;;;;42.47;5.55;;;10.20;99.90;;;;;;5013704;28;20049;-84
2023/01/01 07:39:53;;;;;;;51.63;5.32;;;10.20;99.90;;;;;;5014488;28;20478;-83
2023/01/01 07:42:18;;;;;;;38.83;5.78;;;10.10;99.90;;;;;;5014648;28;20045;-84
2023/01/01 07:44:44;;;;;;;39.85;4.72;;;10.20;99.90;;;;;;5013177;28;20129;-83
2023/01/01 07:47:30;;;;;;;27.73;4.03;;;10.20;99.90;;;;;;5013325;28;20056;-84
2023/01/01 07:49:55;;;;;;;48.38;6.40;;;10.20;99.90;;;;;;5013058;28;20057;-83
2023/01/01 07:52:21;;;;;;;41.45;4.95;;;10.10;99.90;;;;;;5012904;28;20398;-83
2023/01/01 07:54:46;;;;;;;40.78;4.70;;;10.20;99.90;;;;;;5012786;28;20048;-83
2023/01/01 07:57:12;;;;;;;40.60;5.43;;;10.20;99.90;;;;;;5013014;28;20103;-83
2023/01/01 07:59:38;;;;;;;42.80;4.47;;;10.10;99.90;;;;;;5012734;28;20473;-84
2023/01/01 08:02:04;;;;;;;47.70;5.68;;;10.10;99.90;;;;;;5012361;28;20133;-83
2023/01/01 08:04:29;;;;;;;57.67;5.30;;;10.20;99.90;;;;;;5011317;28;20038;-83
2023/01/01 08:06:55;;;;;;;44.10;5.57;;;10.10;99.90;;;;;;5011610;28;20100;-83
2023/01/01 08:09:20;;;;;;;45.65;7.63;;;10.10;99.90;;;;;;5012652;28;20084;-84
2023/01/01 08:11:46;;;;;;;44.10;4.95;;;10.20;99.90;;;;;;5012325;28;20046;-83
2023/01/01 08:14:12;;;;;;;52.80;6.22;;;10.10;99.90;;;;;;5012583;28;20057;-83
2023/01/01 08:16:38;;;;;;;47.10;6.82;;;10.10;99.90;;;;;;5012630;28;20049;-82
2023/01/01 08:19:04;;;;;;;50.97;6.35;;;10.00;99.90;;;;;;5013898;28;20034;-83
2023/01/01 08:21:30;;;;;;;58.70;6.22;;;10.20;99.90;;;;;;5013639;28;20502;-83
2023/01/01 08:23:56;;;;;;;49.17;5.43;;;10.10;99.90;;;;;;5012675;28;20042;-83
2023/01/01 08:26:30;;;;;;;46.25;4.70;;;10.00;99.90;;;;;;5012384;28;20444;-83
2023/01/01 08:28:57;;;;;;;48.53;5.97;;;10.10;99.90;;;;;;5013928;28;20054;-83
2023/01/01 08:31:23;;;;;;;48.22;5.32;;;10.10;99.90;;;;;;5012422;28;20544;-83
2023/01/01 08:33:48;;;;;;;50.40;6.95;;;10.10;99.90;;;;;;5012278;28;20085;-84
2023/01/01 08:36:15;;;;;;;57.38;6.68;;;10.00;99.90;;;;;;5012403;28;20081;-83
2023/01/01 08:38:44;;;;;;;46.50;6.93;;;10.10;99.90;;;;;;5012388;28;20061;-82
2023/01/01 08:41:09;;;;;;;45.65;7.75;;;10.10;99.90;;;;;;5013739;28;20049;-83
2023/01/01 08:43:35;;;;;;;34.90;5.45;;;10.10;99.90;;;;;;5012499;28;20520;-83
2023/01/01 08:46:00;;;;;;;47.55;6.20;;;10.10;99.90;;;;;;5013503;28;20049;-83
2023/01/01 08:48:26;;;;;;;45.03;7.75;;;10.10;99.90;;;;;;5012272;28;20038;-83
2023/01/01 08:50:53;;;;;;;53.40;7.88;;;10.10;99.90;;;;;;5013040;28;20054;-83
2023/01/01 08:53:18;;;;;;;49.45;5.20;;;10.10;99.90;;;;;;5012594;28;20057;-84
2023/01/01 08:55:44;;;;;;;59.70;6.78;;;10.10;99.90;;;;;;5012297;28;20397;-84
2023/01/01 08:58:10;;;;;;;40.33;5.82;;;10.10;99.90;;;;;;5012757;28;20042;-83
2023/01/01 09:00:35;;;;;;;65.03;8.13;;;10.00;99.90;;;;;;5012104;28;20049;-83
2023/01/01 09:03:01;;;;;;;52.83;6.20;;;10.10;99.90;;;;;;5012432;28;20096;-84
2023/01/01 09:05:26;;;;;;;50.33;5.93;;;10.00;99.90;;;;;;5012220;28;20049;-83
2023/01/01 09:07:52;;;;;;;53.30;6.03;;;10.00;99.90;;;;;;5012306;28;20401;-83
2023/01/01 09:10:18;;;;;;;50.28;8.15;;;10.00;99.90;;;;;;5013525;28;20218;-83
2023/01/01 09:12:43;;;;;;;39.45;5.55;;;10.10;99.90;;;;;;5012053;28;20044;-83
2023/01/01 09:15:18;;;;;;;42.60;6.95;;;10.10;99.90;;;;;;5011809;28;20058;-84
2023/01/01 09:17:43;;;;;;;54.17;6.50;;;10.00;99.90;;;;;;5011970;28;20478;-82
2023/01/01 09:20:09;;;;;;;52.33;7.13;;;10.10;99.90;;;;;;5013363;28;20068;-84
2023/01/01 09:22:35;;;;;;;58.08;6.65;;;10.10;99.90;;;;;;5012247;28;20053;-83
2023/01/01 09:25:00;;;;;;;50.30;7.63;;;10.00;99.90;;;;;;5015638;28;20049;-83
2023/01/01 09:27:26;;;;;;;45.22;6.70;;;10.00;99.90;;;;;;5015884;28;20065;-85
2023/01/01 09:29:52;;;;;;;55.25;6.07;;;10.10;99.90;;;;;;5016818;28;20068;-82
2023/01/01 09:32:18;;;;;;;49.10;5.97;;;10.00;99.90;;;;;;5015701;28;20078;-83
2023/01/01 09:34:43;;;;;;;44.17;5.95;;;10.10;99.90;;;;;;5015803;28;20106;-82
2023/01/01 09:37:09;;;;;;;56.85;7.95;;;10.00;99.90;;;;;;5023707;28;20076;-82
2023/01/01 09:39:34;;;;;;;57.05;8.05;;;10.00;99.90;;;;;;5017559;28;20482;-82
2023/01/01 09:42:23;;;;;;;56.13;7.40;;;10.00;99.90;;;;;;5016668;28;20053;-82
2023/01/01 09:45:11;;;;;;;50.38;7.25;;;10.10;99.90;;;;;;5016538;28;20050;-82
2023/01/01 09:47:52;;;;;;;58.15;7.38;;;10.10;99.90;;;;;;5015363;28;20406;-82
2023/01/01 09:50:22;;;;;;;52.63;7.43;;;10.00;99.90;;;;;;5015350;28;20042;-83
2023/01/01 09:53:02;;;;;;;51.70;5.80;;;10.10;99.90;;;;;;5015106;28;20045;-83
2023/01/01 09:55:42;;;;;;;71.18;9.75;;;10.10;99.90;;;;;;5015046;28;20133;-89
2023/01/01 09:58:10;;;;;;;62.25;8.13;;;10.10;99.90;;;;;;5015216;28;20455;-83
2023/01/01 10:00:39;;;;;;;40.78;5.43;;;10.20;99.90;;;;;;5014828;28;20106;-82
2023/01/01 10:03:39;;;;;;;35.90;5.85;;;10.10;99.90;;;;;;5015952;28;20107;-83
2023/01/01 10:06:28;;;;;;;55.35;7.22;;;10.10;99.90;;;;;;5013427;28;20145;-85
2023/01/01 10:09:27;;;;;;;61.42;7.30;;;10.20;99.90;;;;;;5016062;28;20038;-83
2023/01/01 10:12:06;;;;;;;46.25;6.93;;;10.10;99.90;;;;;;5015858;28;20050;-82
2023/01/01 10:14:44;;;;;;;65.43;9.38;;;10.30;99.90;;;;;;5015704;28;20054;-82
2023/01/01 10:17:35;;;;;;;67.45;7.70;;;10.20;99.90;;;;;;5014804;28;20050;-82
2023/01/01 10:20:16;;;;;;;45.58;5.90;;;10.30;99.90;;;;;;5014358;28;20053;-93
2023/01/01 10:22:45;;;;;;;53.88;6.25;;;10.40;99.90;;;;;;5015896;28;20042;-82
2023/01/01 10:25:18;;;;;;;49.03;7.32;;;10.40;99.90;;;;;;5014327;28;20045;-83
2023/01/01 10:27:46;;;;;;;59.47;7.85;;;10.50;99.90;;;;;;5014444;28;20401;-84
2023/01/01 10:30:17;;;;;;;38.15;5.93;;;10.50;99.90;;;;;;5014253;28;20042;-83
2023/01/01 10:32:47;;;;;;;56.42;7.43;;;10.60;99.90;;;;;;5015389;28;20050;-87
2023/01/01 10:35:15;;;;;;;64.53;8.27;;;10.70;99.90;;;;;;5013765;28;20053;-82
2023/01/01 10:37:41;;;;;;;59.38;6.47;;;10.70;99.90;;;;;;5014314;28;20046;-83
2023/01/01 10:40:18;;;;;;;64.38;8.10;;;10.80;99.90;;;;;;5014327;28;20463;-83
2023/01/01 10:42:50;;;;;;;55.22;6.72;;;10.80;99.90;;;;;;5015366;28;20049;-83
2023/01/01 10:45:29;;;;;;;53.60;6.72;;;10.80;99.90;;;;;;5013796;28;20135;-86
2023/01/01 10:48:12;;;;;;;57.10;7.55;;;10.80;99.90;;;;;;5014191;28;20037;-84
2023/01/01 10:50:44;;;;;;;46.90;7.60;;;10.90;99.90;;;;;;5013902;28;20060;-85
2023/01/01 10:53:31;;;;;;;49.78;6.50;;;11.00;99.90;;;;;;5015090;28;20441;-81
2023/01/01 10:56:04;;;;;;;55.25;7.38;;;10.90;99.90;;;;;;5014128;28;20412;-83
2023/01/01 10:58:38;;;;;;;46.92;6.00;;;10.90;99.90;;;;;;5015287;28;20129;-84
2023/01/01 11:01:06;;;;;;;42.55;5.80;;;10.80;99.90;;;;;;5015031;28;20042;-83
2023/01/01 11:03:32;;;;;;;49.67;7.53;;;10.90;99.90;;;;;;5013936;28;20041;-83
2023/01/01 11:06:21;;;;;;;51.15;5.60;;;10.80;99.90;;;;;;5014940;28;20050;-82
2023/01/01 11:08:53;;;;;;;43.33;5.30;;;10.80;99.90;;;;;;5013866;28;20121;-83
2023/01/01 11:11:42;;;;;;;44.78;6.28;;;10.70;99.90;;;;;;5013816;28;20137;-83
2023/01/01 11:14:19;;;;;;;55.08;8.00;;;10.70;99.90;;;;;;5013245;28;20061;-82
2023/01/01 11:16:46;;;;;;;48.08;6.35;;;10.70;99.90;;;;;;5014678;28;20429;-82
2023/01/01 11:19:22;;;;;;;66.68;8.40;;;10.70;99.90;;;;;;5013676;28;20100;-83
2023/01/01 11:21:48;;;;;;;48.53;6.43;;;10.70;99.90;;;;;;5013563;28;20050;-84
2023/01/01 11:24:26;;;;;;;45.38;5.38;;;10.70;99.90;;;;;;5013183;28;20048;-81
2023/01/01 11:26:53;;;;;;;44.50;6.03;;;10.60;99.90;;;;;;5013443;28;20073;-82
2023/01/01 11:29:24;;;;;;;46.13;6.10;;;10.60;99.90;;;;;;5014493;28;20466;-83
2023/01/01 11:31:51;;;;;;;35.33;5.00;;;10.60;99.90;;;;;;5013429;28;20033;-82
2023/01/01 11:34:35;;;;;;;34.28;5.13;;;10.50;99.90;;;;;;5013146;28;20406;-83
2023/01/01 11:37:14;;;;;;;36.92;6.10;;;10.60;99.90;;;;;;5014256;28;20053;-82
2023/01/01 11:39:49;;;;;;;41.45;5.65;;;10.60;99.90;;;;;;5014262;28;20050;-82
2023/01/01 11:42:21;;;;;;;57.97;7.18;;;10.70;99.90;;;;;;5013238;28;20085;-83
2023/01/01 11:44:57;;;;;;;39.20;4.83;;;10.70;99.90;;;;;;5028558;28;20089;-84
2023/01/01 11:47:25;;;;;;;41.90;6.35;;;10.70;99.90;;;;;;5038897;28;20290;-85
2023/01/01 11:50:15;;;;;;;35.20;5.20;;;10.70;99.90;;;;;;5032471;28;20046;-84
2023/01/01 11:52:48;;;;;;;38.75;5.53;;;10.70;99.90;;;;;;5032429;28;20037;-83
2023/01/01 11:55:38;;;;;;;51.72;7.55;;;10.80;99.90;;;;;;5032505;28;20037;-84
2023/01/01 11:58:22;;;;;;;45.22;7.55;;;10.80;99.90;;;;;;5032349;28;20057;-85
2023/01/01 12:00:53;;;;;;;47.35;5.07;;;10.70;99.90;;;;;;5032624;28;20095;-85
2023/01/01 12:03:32;;;;;;;41.85;6.10;;;10.80;99.90;;;;;;5032672;28;20424;-85
2023/01/01 12:06:09;;;;;;;41.40;4.78;;;10.70;99.90;;;;;;5032236;28;20611;-85
2023/01/01 12:08:41;;;;;;;55.85;7.30;;;10.80;99.90;;;;;;5033361;28;20061;-84
2023/01/01 12:11:17;;;;;;;55.47;5.72;;;10.80;99.90;;;;;;5033728;28;20049;-86
2023/01/01 12:13:49;;;;;;;42.20;6.32;;;10.80;99.90;;;;;;5031933;28;20085;-83
2023/01/01 12:16:55;;;;;;;44.17;5.13;;;10.80;99.90;;;;;;5033462;28;20401;-85
2023/01/01 12:19:23;;;;;;;44.08;6.28;;;10.80;99.90;;;;;;5019096;28;20136;-85
2023/01/01 12:21:54;;;;;;;40.63;5.70;;;10.80;99.90;;;;;;5031941;28;20041;-86
2023/01/01 12:24:20;;;;;;;35.75;4.85;;;10.80;99.90;;;;;;5031977;28;20136;-86
2023/01/01 12:27:09;;;;;;;47.33;7.57;;;10.90;99.90;;;;;;5033275;28;20086;-82
2023/01/01 12:30:02;;;;;;;39.92;5.45;;;10.80;99.90;;;;;;5031760;28;20046;-82
2023/01/01 12:33:04;;;;;;;40.78;5.20;;;10.80;99.90;;;;;;5032245;28;20547;-82
2023/01/01 12:35:58;;;;;;;39.80;5.57;;;10.90;99.90;;;;;;5033180;28;20049;-82
2023/01/01 12:38:43;;;;;;;40.83;5.70;;;10.80;99.90;;;;;;5031929;28;20095;-84
2023/01/01 12:41:25;;;;;;;40.63;4.40;;;10.90;99.90;;;;;;5032176;28;20050;-86
2023/01/01 12:44:15;;;;;;;52.25;5.53;;;10.90;99.90;;;;;;5033260;28;20046;-85
2023/01/01 12:46:49;;;;;;;43.03;5.88;;;10.80;99.90;;;;;;5032083;28;20476;-85
2023/01/01 12:49:17;;;;;;;25.90;4.35;;;10.90;99.90;;;;;;5031741;28;20045;-87
2023/01/01 12:52:13;;;;;;;43.00;5.75;;;10.80;99.90;;;;;;5031756;28;20055;-84
2023/01/01 12:54:57;;;;;;;33.40;5.50;;;10.80;99.90;;;;;;5031672;28;20137;-87
2023/01/01 12:57:34;;;;;;;38.65;5.68;;;10.80;99.90;;;;;;5033405;28;20096;-85
2023/01/01 13:00:02;;;;;;;36.15;4.70;;;10.80;99.90;;;;;;5035973;28;20060;-87
2023/01/01 13:02:31;;;;;;;38.42;5.82;;;10.80;99.90;;;;;;5035771;28;20045;-86